sensor_id;sensor_type;location;lat;lon;timestamp;P1;durP1;ratioP1;P2;durP2;ratioP2
40931;SDS011;36257;46.052;12.540;2022-12-29T00:02:15;27.93;;;17.33;;
40931;SDS011;36257;46.052;12.540;2022-12-29T00:04:41;30.38;;;19.33;;
40931;SDS011;36257;46.052;12.540;2022-12-29T00:07:07;25.40;;;17.80;;
40931;SDS011;36257;46.052;12.540;2022-12-29T00:09:33;27.23;;;16.63;;
40931;SDS011;36257;46.052;12.540;2022-12-29T00:12:00;20.13;;;14.30;;
40931;SDS011;36257;46.052;12.540;2022-12-29T00:14:26;18.48;;;11.90;;
40931;SDS011;36257;46.052;12.540;2022-12-29T00:17:11;11.40;;;10.03;;
40931;SDS011;36257;46.052;12.540;2022-12-29T00:19:37;13.17;;;10.67;;
40931;SDS011;36257;46.052;12.540;2022-12-29T00:22:22;12.47;;;8.33;;
40931;SDS011;36257;46.052;12.540;2022-12-29T00:25:07;9.30;;;8.13;;
40931;SDS011;36257;46.052;12.540;2022-12-29T00:27:53;8.88;;;7.93;;
40931;SDS011;36257;46.052;12.540;2022-12-29T00:30:37;10.63;;;7.97;;
40931;SDS011;36257;46.052;12.540;2022-12-29T00:33:22;8.60;;;7.10;;
40931;SDS011;36257;46.052;12.540;2022-12-29T00:38:52;9.27;;;8.00;;
40931;SDS011;36257;46.052;12.540;2022-12-29T00:41:41;9.20;;;7.80;;
40931;SDS011;36257;46.052;12.540;2022-12-29T00:44:25;12.40;;;8.37;;
40931;SDS011;36257;46.052;12.540;2022-12-29T00:46:50;10.00;;;7.93;;
40931;SDS011;36257;46.052;12.540;2022-12-29T00:49:16;9.30;;;7.50;;
40931;SDS011;36257;46.052;12.540;2022-12-29T00:54:30;8.83;;;7.10;;
40931;SDS011;36257;46.052;12.540;2022-12-29T00:56:58;10.17;;;7.40;;
40931;SDS011;36257;46.052;12.540;2022-12-29T00:59:24;10.97;;;8.13;;
40931;SDS011;36257;46.052;12.540;2022-12-29T01:01:51;11.17;;;8.90;;
40931;SDS011;36257;46.052;12.540;2022-12-29T01:04:17;9.65;;;7.68;;
40931;SDS011;36257;46.052;12.540;2022-12-29T01:06:43;14.23;;;9.00;;
40931;SDS011;36257;46.052;12.540;2022-12-29T01:09:09;10.90;;;8.97;;
40931;SDS011;36257;46.052;12.540;2022-12-29T01:11:53;9.83;;;8.83;;
40931;SDS011;36257;46.052;12.540;2022-12-29T01:14:19;9.03;;;8.03;;
40931;SDS011;36257;46.052;12.540;2022-12-29T01:16:46;10.63;;;8.10;;
40931;SDS011;36257;46.052;12.540;2022-12-29T01:19:12;10.00;;;8.63;;
40931;SDS011;36257;46.052;12.540;2022-12-29T01:21:38;10.97;;;8.87;;
40931;SDS011;36257;46.052;12.540;2022-12-29T01:24:03;9.63;;;8.63;;
40931;SDS011;36257;46.052;12.540;2022-12-29T01:26:29;11.20;;;8.70;;
40931;SDS011;36257;46.052;12.540;2022-12-29T01:28:55;10.80;;;8.73;;
40931;SDS011;36257;46.052;12.540;2022-12-29T01:31:21;9.90;;;8.20;;
40931;SDS011;36257;46.052;12.540;2022-12-29T01:33:47;9.47;;;8.37;;
40931;SDS011;36257;46.052;12.540;2022-12-29T01:36:13;10.13;;;8.43;;
40931;SDS011;36257;46.052;12.540;2022-12-29T01:38:41;9.13;;;7.87;;
40931;SDS011;36257;46.052;12.540;2022-12-29T01:41:07;9.33;;;7.20;;
40931;SDS011;36257;46.052;12.540;2022-12-29T01:43:53;9.25;;;8.25;;
40931;SDS011;36257;46.052;12.540;2022-12-29T01:46:33;10.95;;;7.85;;
40931;SDS011;36257;46.052;12.540;2022-12-29T01:54:17;9.03;;;8.13;;
40931;SDS011;36257;46.052;12.540;2022-12-29T01:56:47;13.07;;;9.50;;
40931;SDS011;36257;46.052;12.540;2022-12-29T01:59:18;15.98;;;9.57;;
40931;SDS011;36257;46.052;12.540;2022-12-29T02:01:47;13.53;;;9.70;;
40931;SDS011;36257;46.052;12.540;2022-12-29T02:04:14;15.60;;;10.40;;
40931;SDS011;36257;46.052;12.540;2022-12-29T02:06:48;10.93;;;9.17;;
40931;SDS011;36257;46.052;12.540;2022-12-29T02:09:24;10.10;;;8.90;;
40931;SDS011;36257;46.052;12.540;2022-12-29T02:11:50;12.10;;;9.50;;
40931;SDS011;36257;46.052;12.540;2022-12-29T02:14:17;11.67;;;9.53;;
40931;SDS011;36257;46.052;12.540;2022-12-29T02:22:03;13.38;;;9.57;;
40931;SDS011;36257;46.052;12.540;2022-12-29T02:27:17;9.40;;;8.50;;
40931;SDS011;36257;46.052;12.540;2022-12-29T02:35:29;10.37;;;8.60;;
40931;SDS011;36257;46.052;12.540;2022-12-29T02:41:06;10.83;;;9.50;;
40931;SDS011;36257;46.052;12.540;2022-12-29T02:43:48;11.30;;;9.87;;
40931;SDS011;36257;46.052;12.540;2022-12-29T02:46:36;14.57;;;10.23;;
40931;SDS011;36257;46.052;12.540;2022-12-29T02:49:19;10.93;;;9.50;;
40931;SDS011;36257;46.052;12.540;2022-12-29T02:51:52;12.67;;;9.47;;
40931;SDS011;36257;46.052;12.540;2022-12-29T02:54:40;14.73;;;11.13;;
40931;SDS011;36257;46.052;12.540;2022-12-29T02:59:38;19.53;;;12.27;;
40931;SDS011;36257;46.052;12.540;2022-12-29T03:13:55;12.57;;;10.60;;
40931;SDS011;36257;46.052;12.540;2022-12-29T03:16:46;15.93;;;11.50;;
40931;SDS011;36257;46.052;12.540;2022-12-29T03:21:56;16.00;;;11.93;;
40931;SDS011;36257;46.052;12.540;2022-12-29T03:24:45;14.47;;;11.80;;
40931;SDS011;36257;46.052;12.540;2022-12-29T03:27:15;15.03;;;11.80;;
40931;SDS011;36257;46.052;12.540;2022-12-29T03:29:54;19.33;;;13.07;;
40931;SDS011;36257;46.052;12.540;2022-12-29T03:32:31;15.63;;;11.70;;
40931;SDS011;36257;46.052;12.540;2022-12-29T03:35:01;13.33;;;10.93;;
40931;SDS011;36257;46.052;12.540;2022-12-29T03:37:29;15.35;;;11.50;;
40931;SDS011;36257;46.052;12.540;2022-12-29T03:40:00;18.53;;;11.40;;
40931;SDS011;36257;46.052;12.540;2022-12-29T03:42:27;14.13;;;10.63;;
40931;SDS011;36257;46.052;12.540;2022-12-29T03:44:56;12.73;;;9.83;;
40931;SDS011;36257;46.052;12.540;2022-12-29T03:47:22;15.03;;;10.17;;
40931;SDS011;36257;46.052;12.540;2022-12-29T03:49:48;11.73;;;9.47;;
40931;SDS011;36257;46.052;12.540;2022-12-29T03:52:15;14.53;;;10.10;;
40931;SDS011;36257;46.052;12.540;2022-12-29T03:54:41;12.53;;;10.80;;
40931;SDS011;36257;46.052;12.540;2022-12-29T03:57:08;13.73;;;11.67;;
40931;SDS011;36257;46.052;12.540;2022-12-29T03:59:35;12.00;;;10.23;;
40931;SDS011;36257;46.052;12.540;2022-12-29T04:02:00;14.60;;;10.07;;
40931;SDS011;36257;46.052;12.540;2022-12-29T04:04:26;13.17;;;9.83;;
40931;SDS011;36257;46.052;12.540;2022-12-29T04:06:51;11.97;;;10.13;;
40931;SDS011;36257;46.052;12.540;2022-12-29T04:09:17;16.03;;;11.40;;
40931;SDS011;36257;46.052;12.540;2022-12-29T04:11:43;13.00;;;11.23;;
40931;SDS011;36257;46.052;12.540;2022-12-29T04:14:08;15.83;;;11.80;;
40931;SDS011;36257;46.052;12.540;2022-12-29T04:16:34;13.43;;;10.70;;
40931;SDS011;36257;46.052;12.540;2022-12-29T04:19:04;16.73;;;12.37;;
40931;SDS011;36257;46.052;12.540;2022-12-29T04:21:30;15.77;;;12.47;;
40931;SDS011;36257;46.052;12.540;2022-12-29T04:23:56;13.23;;;10.67;;
40931;SDS011;36257;46.052;12.540;2022-12-29T04:26:21;14.80;;;11.87;;
40931;SDS011;36257;46.052;12.540;2022-12-29T04:28:48;14.83;;;12.10;;
40931;SDS011;36257;46.052;12.540;2022-12-29T04:33:40;17.47;;;11.03;;
40931;SDS011;36257;46.052;12.540;2022-12-29T04:36:06;15.90;;;11.73;;
40931;SDS011;36257;46.052;12.540;2022-12-29T04:38:32;14.43;;;11.23;;
40931;SDS011;36257;46.052;12.540;2022-12-29T04:41:00;18.30;;;12.00;;
40931;SDS011;36257;46.052;12.540;2022-12-29T04:43:26;17.17;;;11.90;;
40931;SDS011;36257;46.052;12.540;2022-12-29T04:45:52;16.30;;;12.47;;
40931;SDS011;36257;46.052;12.540;2022-12-29T04:48:18;15.67;;;12.80;;
40931;SDS011;36257;46.052;12.540;2022-12-29T04:50:47;15.30;;;11.90;;
40931;SDS011;36257;46.052;12.540;2022-12-29T04:53:13;15.97;;;11.93;;
40931;SDS011;36257;46.052;12.540;2022-12-29T04:55:39;15.63;;;12.37;;
40931;SDS011;36257;46.052;12.540;2022-12-29T04:58:05;15.80;;;12.10;;
40931;SDS011;36257;46.052;12.540;2022-12-29T05:00:30;15.43;;;11.67;;
40931;SDS011;36257;46.052;12.540;2022-12-29T05:02:56;14.43;;;11.20;;
40931;SDS011;36257;46.052;12.540;2022-12-29T05:05:22;18.73;;;12.70;;
40931;SDS011;36257;46.052;12.540;2022-12-29T05:07:47;17.23;;;11.43;;
40931;SDS011;36257;46.052;12.540;2022-12-29T05:10:13;16.50;;;13.07;;
40931;SDS011;36257;46.052;12.540;2022-12-29T05:12:39;17.50;;;11.67;;
40931;SDS011;36257;46.052;12.540;2022-12-29T05:15:05;15.40;;;11.83;;
40931;SDS011;36257;46.052;12.540;2022-12-29T05:17:31;20.15;;;13.30;;
40931;SDS011;36257;46.052;12.540;2022-12-29T05:19:57;21.47;;;13.93;;
40931;SDS011;36257;46.052;12.540;2022-12-29T05:22:23;16.37;;;13.47;;
40931;SDS011;36257;46.052;12.540;2022-12-29T05:24:48;13.53;;;12.03;;
40931;SDS011;36257;46.052;12.540;2022-12-29T05:27:14;17.03;;;12.77;;
40931;SDS011;36257;46.052;12.540;2022-12-29T05:29:40;18.53;;;13.43;;
40931;SDS011;36257;46.052;12.540;2022-12-29T05:32:05;19.10;;;12.53;;
40931;SDS011;36257;46.052;12.540;2022-12-29T05:34:31;20.80;;;14.23;;
40931;SDS011;36257;46.052;12.540;2022-12-29T05:36:56;16.43;;;13.23;;
40931;SDS011;36257;46.052;12.540;2022-12-29T05:39:22;16.87;;;12.53;;
40931;SDS011;36257;46.052;12.540;2022-12-29T05:41:48;15.33;;;12.13;;
40931;SDS011;36257;46.052;12.540;2022-12-29T05:44:14;18.13;;;13.20;;
40931;SDS011;36257;46.052;12.540;2022-12-29T05:46:39;14.73;;;12.17;;
40931;SDS011;36257;46.052;12.540;2022-12-29T05:49:05;18.07;;;12.17;;
40931;SDS011;36257;46.052;12.540;2022-12-29T05:51:31;17.57;;;13.20;;
40931;SDS011;36257;46.052;12.540;2022-12-29T05:53:57;16.30;;;13.17;;
40931;SDS011;36257;46.052;12.540;2022-12-29T05:56:22;18.57;;;13.53;;
40931;SDS011;36257;46.052;12.540;2022-12-29T05:58:48;17.87;;;13.43;;
40931;SDS011;36257;46.052;12.540;2022-12-29T06:01:14;20.00;;;13.83;;
40931;SDS011;36257;46.052;12.540;2022-12-29T06:03:39;14.57;;;12.37;;
40931;SDS011;36257;46.052;12.540;2022-12-29T06:06:05;15.50;;;11.73;;
40931;SDS011;36257;46.052;12.540;2022-12-29T06:08:31;17.10;;;12.50;;
40931;SDS011;36257;46.052;12.540;2022-12-29T06:10:56;18.37;;;12.90;;
40931;SDS011;36257;46.052;12.540;2022-12-29T06:13:22;15.13;;;11.80;;
40931;SDS011;36257;46.052;12.540;2022-12-29T06:15:48;18.07;;;13.23;;
40931;SDS011;36257;46.052;12.540;2022-12-29T06:18:14;14.93;;;11.77;;
40931;SDS011;36257;46.052;12.540;2022-12-29T06:20:40;20.17;;;12.27;;
40931;SDS011;36257;46.052;12.540;2022-12-29T06:23:06;18.07;;;13.40;;
40931;SDS011;36257;46.052;12.540;2022-12-29T06:25:31;15.20;;;13.17;;
40931;SDS011;36257;46.052;12.540;2022-12-29T06:27:58;16.77;;;13.95;;
40931;SDS011;36257;46.052;12.540;2022-12-29T06:30:24;18.93;;;15.13;;
40931;SDS011;36257;46.052;12.540;2022-12-29T06:32:50;17.17;;;12.97;;
40931;SDS011;36257;46.052;12.540;2022-12-29T06:35:16;17.10;;;13.53;;
40931;SDS011;36257;46.052;12.540;2022-12-29T06:37:42;15.30;;;12.00;;
40931;SDS011;36257;46.052;12.540;2022-12-29T06:40:08;14.73;;;12.50;;
40931;SDS011;36257;46.052;12.540;2022-12-29T06:42:35;18.03;;;13.70;;
40931;SDS011;36257;46.052;12.540;2022-12-29T06:45:00;20.30;;;12.93;;
40931;SDS011;36257;46.052;12.540;2022-12-29T06:47:26;15.10;;;11.97;;
40931;SDS011;36257;46.052;12.540;2022-12-29T06:49:52;17.63;;;12.93;;
40931;SDS011;36257;46.052;12.540;2022-12-29T06:52:18;17.57;;;12.73;;
40931;SDS011;36257;46.052;12.540;2022-12-29T06:54:43;20.03;;;13.30;;
40931;SDS011;36257;46.052;12.540;2022-12-29T06:57:09;21.87;;;14.33;;
40931;SDS011;36257;46.052;12.540;2022-12-29T06:59:35;21.30;;;15.73;;
40931;SDS011;36257;46.052;12.540;2022-12-29T07:02:00;20.17;;;15.97;;
40931;SDS011;36257;46.052;12.540;2022-12-29T07:04:27;18.87;;;14.13;;
40931;SDS011;36257;46.052;12.540;2022-12-29T07:06:53;16.47;;;12.90;;
40931;SDS011;36257;46.052;12.540;2022-12-29T07:09:19;15.57;;;12.70;;
40931;SDS011;36257;46.052;12.540;2022-12-29T07:11:44;17.43;;;13.00;;
40931;SDS011;36257;46.052;12.540;2022-12-29T07:14:10;17.70;;;13.53;;
40931;SDS011;36257;46.052;12.540;2022-12-29T07:16:36;18.80;;;12.03;;
40931;SDS011;36257;46.052;12.540;2022-12-29T07:19:02;16.40;;;12.10;;
40931;SDS011;36257;46.052;12.540;2022-12-29T07:21:28;17.85;;;13.25;;
40931;SDS011;36257;46.052;12.540;2022-12-29T07:23:54;16.67;;;12.85;;
40931;SDS011;36257;46.052;12.540;2022-12-29T07:26:20;14.82;;;12.13;;
40931;SDS011;36257;46.052;12.540;2022-12-29T07:28:46;16.02;;;12.38;;
40931;SDS011;36257;46.052;12.540;2022-12-29T07:31:15;17.08;;;12.70;;
40931;SDS011;36257;46.052;12.540;2022-12-29T07:33:42;23.77;;;15.33;;
40931;SDS011;36257;46.052;12.540;2022-12-29T07:36:09;20.92;;;17.65;;
40931;SDS011;36257;46.052;12.540;2022-12-29T07:38:35;18.53;;;14.63;;
40931;SDS011;36257;46.052;12.540;2022-12-29T07:41:01;17.05;;;12.93;;
40931;SDS011;36257;46.052;12.540;2022-12-29T07:43:26;17.58;;;13.18;;
40931;SDS011;36257;46.052;12.540;2022-12-29T07:45:52;17.15;;;13.27;;
40931;SDS011;36257;46.052;12.540;2022-12-29T07:48:18;18.10;;;12.65;;
40931;SDS011;36257;46.052;12.540;2022-12-29T07:50:44;18.17;;;12.70;;
40931;SDS011;36257;46.052;12.540;2022-12-29T07:53:09;21.25;;;13.30;;
40931;SDS011;36257;46.052;12.540;2022-12-29T07:55:35;18.38;;;12.98;;
40931;SDS011;36257;46.052;12.540;2022-12-29T07:58:01;16.42;;;13.77;;
40931;SDS011;36257;46.052;12.540;2022-12-29T08:00:27;17.58;;;13.82;;
40931;SDS011;36257;46.052;12.540;2022-12-29T08:02:52;20.55;;;14.32;;
40931;SDS011;36257;46.052;12.540;2022-12-29T08:05:18;18.42;;;14.90;;
40931;SDS011;36257;46.052;12.540;2022-12-29T08:07:44;22.65;;;16.17;;
40931;SDS011;36257;46.052;12.540;2022-12-29T08:10:11;23.40;;;17.57;;
40931;SDS011;36257;46.052;12.540;2022-12-29T08:12:37;25.77;;;18.63;;
40931;SDS011;36257;46.052;12.540;2022-12-29T08:15:04;25.23;;;19.98;;
40931;SDS011;36257;46.052;12.540;2022-12-29T08:17:30;28.30;;;18.35;;
40931;SDS011;36257;46.052;12.540;2022-12-29T08:19:56;28.92;;;17.15;;
40931;SDS011;36257;46.052;12.540;2022-12-29T08:22:23;31.33;;;20.58;;
40931;SDS011;36257;46.052;12.540;2022-12-29T08:24:49;23.83;;;17.95;;
40931;SDS011;36257;46.052;12.540;2022-12-29T08:27:14;24.92;;;17.90;;
40931;SDS011;36257;46.052;12.540;2022-12-29T08:29:40;24.42;;;16.00;;
40931;SDS011;36257;46.052;12.540;2022-12-29T08:32:06;21.02;;;14.55;;
40931;SDS011;36257;46.052;12.540;2022-12-29T08:34:31;19.33;;;16.45;;
40931;SDS011;36257;46.052;12.540;2022-12-29T08:36:57;20.95;;;15.10;;
40931;SDS011;36257;46.052;12.540;2022-12-29T08:39:23;22.70;;;16.23;;
40931;SDS011;36257;46.052;12.540;2022-12-29T08:41:49;23.38;;;16.92;;
40931;SDS011;36257;46.052;12.540;2022-12-29T08:44:15;24.83;;;16.83;;
40931;SDS011;36257;46.052;12.540;2022-12-29T08:46:40;21.75;;;16.42;;
40931;SDS011;36257;46.052;12.540;2022-12-29T08:49:06;19.42;;;15.02;;
40931;SDS011;36257;46.052;12.540;2022-12-29T08:51:32;26.70;;;18.40;;
40931;SDS011;36257;46.052;12.540;2022-12-29T08:53:58;51.03;;;19.52;;
40931;SDS011;36257;46.052;12.540;2022-12-29T08:56:24;47.50;;;18.30;;
40931;SDS011;36257;46.052;12.540;2022-12-29T08:58:50;36.72;;;21.08;;
40931;SDS011;36257;46.052;12.540;2022-12-29T09:01:16;30.15;;;19.98;;
40931;SDS011;36257;46.052;12.540;2022-12-29T09:03:42;27.90;;;21.33;;
40931;SDS011;36257;46.052;12.540;2022-12-29T09:06:08;27.35;;;20.27;;
40931;SDS011;36257;46.052;12.540;2022-12-29T09:08:33;27.27;;;19.10;;
40931;SDS011;36257;46.052;12.540;2022-12-29T09:11:09;24.75;;;17.38;;
40931;SDS011;36257;46.052;12.540;2022-12-29T09:13:45;25.73;;;18.08;;
40931;SDS011;36257;46.052;12.540;2022-12-29T09:16:11;21.40;;;16.55;;
40931;SDS011;36257;46.052;12.540;2022-12-29T09:18:38;25.75;;;17.58;;
40931;SDS011;36257;46.052;12.540;2022-12-29T09:21:05;20.58;;;15.68;;
40931;SDS011;36257;46.052;12.540;2022-12-29T09:25:58;24.17;;;16.15;;
40931;SDS011;36257;46.052;12.540;2022-12-29T09:28:24;26.25;;;16.75;;
40931;SDS011;36257;46.052;12.540;2022-12-29T09:30:50;27.50;;;17.52;;
40931;SDS011;36257;46.052;12.540;2022-12-29T09:33:15;23.83;;;17.85;;
40931;SDS011;36257;46.052;12.540;2022-12-29T09:35:42;31.92;;;18.88;;
40931;SDS011;36257;46.052;12.540;2022-12-29T09:38:09;24.95;;;16.20;;
40931;SDS011;36257;46.052;12.540;2022-12-29T09:40:35;22.85;;;16.65;;
40931;SDS011;36257;46.052;12.540;2022-12-29T09:48:34;22.88;;;17.80;;
40931;SDS011;36257;46.052;12.540;2022-12-29T09:51:07;22.63;;;15.90;;
40931;SDS011;36257;46.052;12.540;2022-12-29T09:53:38;22.50;;;16.85;;
40931;SDS011;36257;46.052;12.540;2022-12-29T09:56:10;21.17;;;14.68;;
40931;SDS011;36257;46.052;12.540;2022-12-29T09:58:42;23.30;;;15.00;;
40931;SDS011;36257;46.052;12.540;2022-12-29T10:01:36;23.20;;;16.88;;
40931;SDS011;36257;46.052;12.540;2022-12-29T10:04:07;22.80;;;17.17;;
40931;SDS011;36257;46.052;12.540;2022-12-29T10:16:51;22.25;;;15.70;;
40931;SDS011;36257;46.052;12.540;2022-12-29T10:25:31;22.02;;;15.57;;
40931;SDS011;36257;46.052;12.540;2022-12-29T10:28:03;23.25;;;15.23;;
40931;SDS011;36257;46.052;12.540;2022-12-29T10:30:35;20.10;;;15.57;;
40931;SDS011;36257;46.052;12.540;2022-12-29T10:33:02;19.75;;;15.75;;
40931;SDS011;36257;46.052;12.540;2022-12-29T10:35:32;25.15;;;15.02;;
40931;SDS011;36257;46.052;12.540;2022-12-29T10:40:45;24.38;;;18.98;;
40931;SDS011;36257;46.052;12.540;2022-12-29T10:44:01;23.83;;;17.52;;
40931;SDS011;36257;46.052;12.540;2022-12-29T10:46:13;24.05;;;17.65;;
40931;SDS011;36257;46.052;12.540;2022-12-29T10:48:47;23.33;;;16.60;;
40931;SDS011;36257;46.052;12.540;2022-12-29T10:51:24;23.98;;;18.52;;
40931;SDS011;36257;46.052;12.540;2022-12-29T10:53:56;27.25;;;19.45;;
40931;SDS011;36257;46.052;12.540;2022-12-29T10:59:11;26.45;;;19.35;;
40931;SDS011;36257;46.052;12.540;2022-12-29T11:07:25;27.13;;;19.90;;
40931;SDS011;36257;46.052;12.540;2022-12-29T11:09:51;28.30;;;21.23;;
40931;SDS011;36257;46.052;12.540;2022-12-29T11:12:18;28.15;;;19.05;;
40931;SDS011;36257;46.052;12.540;2022-12-29T11:14:47;21.67;;;15.85;;
40931;SDS011;36257;46.052;12.540;2022-12-29T11:17:49;24.65;;;17.92;;
40931;SDS011;36257;46.052;12.540;2022-12-29T11:23:04;29.90;;;19.60;;
40931;SDS011;36257;46.052;12.540;2022-12-29T11:25:47;24.85;;;17.40;;
40931;SDS011;36257;46.052;12.540;2022-12-29T11:31:42;25.45;;;17.33;;
40931;SDS011;36257;46.052;12.540;2022-12-29T11:36:41;26.05;;;17.75;;
40931;SDS011;36257;46.052;12.540;2022-12-29T11:39:16;24.25;;;18.50;;
40931;SDS011;36257;46.052;12.540;2022-12-29T11:41:59;26.10;;;20.27;;
40931;SDS011;36257;46.052;12.540;2022-12-29T11:44:35;26.00;;;18.15;;
40931;SDS011;36257;46.052;12.540;2022-12-29T11:47:03;24.52;;;19.13;;
40931;SDS011;36257;46.052;12.540;2022-12-29T11:49:30;27.35;;;17.65;;
40931;SDS011;36257;46.052;12.540;2022-12-29T11:51:56;24.52;;;18.85;;
40931;SDS011;36257;46.052;12.540;2022-12-29T11:56:58;29.63;;;19.43;;
40931;SDS011;36257;46.052;12.540;2022-12-29T11:59:42;29.45;;;17.73;;
40931;SDS011;36257;46.052;12.540;2022-12-29T12:04:45;23.73;;;16.08;;
40931;SDS011;36257;46.052;12.540;2022-12-29T12:10:30;26.30;;;17.73;;
40931;SDS011;36257;46.052;12.540;2022-12-29T12:15:52;22.33;;;16.75;;
40931;SDS011;36257;46.052;12.540;2022-12-29T12:18:30;25.50;;;17.98;;
40931;SDS011;36257;46.052;12.540;2022-12-29T12:21:09;23.58;;;18.40;;
40931;SDS011;36257;46.052;12.540;2022-12-29T12:26:34;24.50;;;19.48;;
40931;SDS011;36257;46.052;12.540;2022-12-29T12:29:10;24.35;;;18.65;;
40931;SDS011;36257;46.052;12.540;2022-12-29T12:32:06;23.13;;;18.23;;
40931;SDS011;36257;46.052;12.540;2022-12-29T12:34:40;29.33;;;19.00;;
40931;SDS011;36257;46.052;12.540;2022-12-29T12:42:49;30.83;;;21.83;;
40931;SDS011;36257;46.052;12.540;2022-12-29T12:48:23;37.22;;;25.02;;
40931;SDS011;36257;46.052;12.540;2022-12-29T12:56:46;30.85;;;22.02;;
40931;SDS011;36257;46.052;12.540;2022-12-29T13:02:20;29.92;;;20.83;;
40931;SDS011;36257;46.052;12.540;2022-12-29T13:15:46;30.35;;;21.42;;
40931;SDS011;36257;46.052;12.540;2022-12-29T13:27:01;26.70;;;21.23;;
40931;SDS011;36257;46.052;12.540;2022-12-29T13:32:29;28.50;;;21.15;;
40931;SDS011;36257;46.052;12.540;2022-12-29T13:37:57;31.02;;;22.23;;
40931;SDS011;36257;46.052;12.540;2022-12-29T13:40:28;32.63;;;22.50;;
40931;SDS011;36257;46.052;12.540;2022-12-29T13:42:59;31.98;;;23.17;;
40931;SDS011;36257;46.052;12.540;2022-12-29T13:45:28;27.42;;;22.10;;
40931;SDS011;36257;46.052;12.540;2022-12-29T13:50:22;34.28;;;24.05;;
40931;SDS011;36257;46.052;12.540;2022-12-29T13:55:25;32.72;;;23.65;;
40931;SDS011;36257;46.052;12.540;2022-12-29T13:58:03;32.13;;;23.75;;
40931;SDS011;36257;46.052;12.540;2022-12-29T14:00:46;33.28;;;23.55;;
40931;SDS011;36257;46.052;12.540;2022-12-29T14:03:27;32.88;;;23.77;;
40931;SDS011;36257;46.052;12.540;2022-12-29T14:06:10;33.72;;;24.65;;
40931;SDS011;36257;46.052;12.540;2022-12-29T14:08:41;30.98;;;22.65;;
40931;SDS011;36257;46.052;12.540;2022-12-29T14:11:09;35.10;;;23.52;;
40931;SDS011;36257;46.052;12.540;2022-12-29T14:13:37;30.75;;;22.85;;
40931;SDS011;36257;46.052;12.540;2022-12-29T14:16:05;32.70;;;23.17;;
40931;SDS011;36257;46.052;12.540;2022-12-29T14:18:32;27.33;;;20.45;;
40931;SDS011;36257;46.052;12.540;2022-12-29T14:21:10;30.45;;;22.45;;
40931;SDS011;36257;46.052;12.540;2022-12-29T14:23:43;30.67;;;21.42;;
40931;SDS011;36257;46.052;12.540;2022-12-29T14:28:55;34.63;;;23.65;;
40931;SDS011;36257;46.052;12.540;2022-12-29T14:36:37;30.05;;;22.02;;
40931;SDS011;36257;46.052;12.540;2022-12-29T14:42:03;32.95;;;23.52;;
40931;SDS011;36257;46.052;12.540;2022-12-29T14:44:48;37.83;;;24.85;;
40931;SDS011;36257;46.052;12.540;2022-12-29T14:52:59;36.53;;;24.05;;
40931;SDS011;36257;46.052;12.540;2022-12-29T14:58:01;31.23;;;22.55;;
40931;SDS011;36257;46.052;12.540;2022-12-29T15:00:31;32.85;;;22.05;;
40931;SDS011;36257;46.052;12.540;2022-12-29T15:05:51;30.35;;;23.10;;
40931;SDS011;36257;46.052;12.540;2022-12-29T15:08:28;31.55;;;23.30;;
40931;SDS011;36257;46.052;12.540;2022-12-29T15:11:01;30.27;;;23.02;;
40931;SDS011;36257;46.052;12.540;2022-12-29T15:13:38;31.48;;;23.80;;
40931;SDS011;36257;46.052;12.540;2022-12-29T15:19:20;30.95;;;22.92;;
40931;SDS011;36257;46.052;12.540;2022-12-29T15:21:47;31.88;;;22.98;;
40931;SDS011;36257;46.052;12.540;2022-12-29T15:24:13;33.42;;;24.23;;
40931;SDS011;36257;46.052;12.540;2022-12-29T15:26:40;38.33;;;24.38;;
40931;SDS011;36257;46.052;12.540;2022-12-29T15:34:51;42.00;;;27.67;;
40931;SDS011;36257;46.052;12.540;2022-12-29T15:37:24;40.97;;;27.05;;
40931;SDS011;36257;46.052;12.540;2022-12-29T15:39:52;42.33;;;29.67;;
40931;SDS011;36257;46.052;12.540;2022-12-29T15:45:14;44.80;;;31.05;;
40931;SDS011;36257;46.052;12.540;2022-12-29T15:47:41;44.13;;;30.35;;
40931;SDS011;36257;46.052;12.540;2022-12-29T15:50:14;47.20;;;32.38;;
40931;SDS011;36257;46.052;12.540;2022-12-29T15:52:48;39.50;;;29.27;;
40931;SDS011;36257;46.052;12.540;2022-12-29T15:55:19;53.17;;;36.05;;
40931;SDS011;36257;46.052;12.540;2022-12-29T15:57:58;53.58;;;34.97;;
40931;SDS011;36257;46.052;12.540;2022-12-29T16:00:27;46.00;;;31.95;;
40931;SDS011;36257;46.052;12.540;2022-12-29T16:02:59;36.88;;;27.88;;
40931;SDS011;36257;46.052;12.540;2022-12-29T16:05:37;36.00;;;27.88;;
40931;SDS011;36257;46.052;12.540;2022-12-29T16:08:15;36.55;;;24.55;;
40931;SDS011;36257;46.052;12.540;2022-12-29T16:10:56;38.60;;;26.33;;
40931;SDS011;36257;46.052;12.540;2022-12-29T16:13:30;51.00;;;33.83;;
40931;SDS011;36257;46.052;12.540;2022-12-29T16:16:07;48.95;;;35.78;;
40931;SDS011;36257;46.052;12.540;2022-12-29T16:18:38;53.38;;;37.70;;
40931;SDS011;36257;46.052;12.540;2022-12-29T16:21:05;54.63;;;37.22;;
40931;SDS011;36257;46.052;12.540;2022-12-29T16:23:40;53.70;;;36.25;;
40931;SDS011;36257;46.052;12.540;2022-12-29T16:26:19;52.30;;;34.75;;
40931;SDS011;36257;46.052;12.540;2022-12-29T16:28:47;55.50;;;35.47;;
40931;SDS011;36257;46.052;12.540;2022-12-29T16:31:17;52.35;;;36.17;;
40931;SDS011;36257;46.052;12.540;2022-12-29T16:33:57;46.47;;;33.10;;
40931;SDS011;36257;46.052;12.540;2022-12-29T16:36:24;55.05;;;37.10;;
40931;SDS011;36257;46.052;12.540;2022-12-29T16:39:08;52.35;;;36.97;;
40931;SDS011;36257;46.052;12.540;2022-12-29T16:41:42;53.15;;;33.38;;
40931;SDS011;36257;46.052;12.540;2022-12-29T16:44:18;50.60;;;34.30;;
40931;SDS011;36257;46.052;12.540;2022-12-29T16:47:00;55.10;;;35.40;;
40931;SDS011;36257;46.052;12.540;2022-12-29T16:49:29;48.55;;;34.15;;
40931;SDS011;36257;46.052;12.540;2022-12-29T16:51:56;44.28;;;31.92;;
40931;SDS011;36257;46.052;12.540;2022-12-29T16:54:30;42.30;;;29.25;;
40931;SDS011;36257;46.052;12.540;2022-12-29T16:57:01;39.88;;;28.45;;
40931;SDS011;36257;46.052;12.540;2022-12-29T17:02:06;40.38;;;28.05;;
40931;SDS011;36257;46.052;12.540;2022-12-29T17:04:37;38.78;;;28.42;;
40931;SDS011;36257;46.052;12.540;2022-12-29T17:07:04;39.17;;;25.90;;
40931;SDS011;36257;46.052;12.540;2022-12-29T17:09:43;42.58;;;28.77;;
40931;SDS011;36257;46.052;12.540;2022-12-29T17:12:09;40.92;;;29.10;;
40931;SDS011;36257;46.052;12.540;2022-12-29T17:17:30;39.92;;;28.38;;
40931;SDS011;36257;46.052;12.540;2022-12-29T17:20:23;35.85;;;26.48;;
40931;SDS011;36257;46.052;12.540;2022-12-29T17:22:49;32.85;;;24.98;;
40931;SDS011;36257;46.052;12.540;2022-12-29T17:25:19;39.03;;;25.13;;
40931;SDS011;36257;46.052;12.540;2022-12-29T17:27:49;56.88;;;31.60;;
40931;SDS011;36257;46.052;12.540;2022-12-29T17:30:27;43.33;;;26.85;;
40931;SDS011;36257;46.052;12.540;2022-12-29T17:32:58;37.42;;;26.38;;
40931;SDS011;36257;46.052;12.540;2022-12-29T17:35:28;34.90;;;24.88;;
40931;SDS011;36257;46.052;12.540;2022-12-29T17:37:53;36.13;;;26.58;;
40931;SDS011;36257;46.052;12.540;2022-12-29T17:40:21;47.03;;;28.10;;